Terminal Aerodrome Forecast
Issued by NWS

Home | Current Version | Previous Version | Graphics & Text | Print | Product List | Glossary On
Versions: 1 2 3 4 5 6 7 8 9 10 11 12 13 14 15 16 17
000
FTUS43 KABR 200500
TAFATY
TAF
KATY 200520Z 2006/2106 15008KT P6SM SCT250
     FM201600 14012KT P6SM OVC250 PROB30 2100/2103 -TSRA BKN050CB
     FM210300 14012KT P6SM -TSRA BKN050CB=

USA.gov is the U.S. government's official web portal to all federal, state and local government web resources and services.